createdAt,value
2023-01-13T00:01:21.027Z,20.75
2023-01-13T00:03:48.832Z,23.35
2023-01-13T00:06:22.392Z,27.88
2023-01-13T00:08:50.707Z,23.48
2023-01-13T00:11:19.396Z,26.55
2023-01-13T00:13:46.557Z,23.95
2023-01-13T00:16:17.525Z,26.48
2023-01-13T00:18:45.479Z,34.60
2023-01-13T00:21:19.268Z,26.30
2023-01-13T00:23:47.387Z,29.48
2023-01-13T00:26:23.915Z,34.33
2023-01-13T00:28:51.677Z,29.17
2023-01-13T00:31:21.187Z,34.00
2023-01-13T00:33:51.493Z,33.83
2023-01-13T00:36:20.545Z,32.17
2023-01-13T00:38:48.148Z,33.20
2023-01-13T00:41:22.953Z,38.58
2023-01-13T00:43:50.297Z,38.83
2023-01-13T00:46:20.814Z,38.95
2023-01-13T00:48:48.509Z,37.35
2023-01-13T00:51:20.468Z,34.75
2023-01-13T00:53:52.326Z,34.13
2023-01-13T00:56:38.520Z,36.35
2023-01-13T00:59:07.230Z,36.97
2023-01-13T01:01:34.534Z,32.63
2023-01-13T01:04:01.514Z,35.05
2023-01-13T01:06:29.025Z,36.38
2023-01-13T01:08:56.933Z,25.58
2023-01-13T01:11:28.767Z,31.50
2023-01-13T01:13:58.153Z,31.92
2023-01-13T01:16:28.153Z,35.28
2023-01-13T01:18:55.930Z,28.90
2023-01-13T01:21:25.280Z,28.50
2023-01-13T01:23:52.401Z,32.53
2023-01-13T01:26:25.216Z,26.55
2023-01-13T01:28:53.396Z,27.38
2023-01-13T01:31:31.444Z,26.50
2023-01-13T01:34:00.071Z,24.60
2023-01-13T01:36:31.760Z,30.67
2023-01-13T01:38:59.938Z,28.05
2023-01-13T01:41:31.586Z,29.75
2023-01-13T01:44:08.396Z,28.00
2023-01-13T01:46:43.957Z,29.88
2023-01-13T01:49:30.771Z,30.10
2023-01-13T01:52:08.308Z,30.15
2023-01-13T01:55:00.173Z,27.83
2023-01-13T01:57:38.064Z,34.20
2023-01-13T02:00:06.542Z,31.30
2023-01-13T02:02:40.487Z,32.92
2023-01-13T02:05:08.312Z,29.58
2023-01-13T02:07:38.827Z,34.90
2023-01-13T02:10:11.194Z,32.38
2023-01-13T02:12:40.548Z,31.90
2023-01-13T02:15:21.796Z,30.02
2023-01-13T02:18:10.468Z,30.30
2023-01-13T02:20:45.841Z,28.20
2023-01-13T02:24:13.931Z,36.65
2023-01-13T02:27:15.905Z,33.95
2023-01-13T02:30:07.385Z,31.40
2023-01-13T02:32:58.434Z,31.08
2023-01-13T02:35:36.597Z,33.17
2023-01-13T02:38:05.368Z,31.45
2023-01-13T02:40:46.463Z,35.42
2023-01-13T02:43:58.107Z,32.70
2023-01-13T02:46:43.350Z,30.40
2023-01-13T02:49:20.381Z,30.20
2023-01-13T02:51:49.376Z,30.63
2023-01-13T02:54:22.704Z,38.75
2023-01-13T02:56:53.174Z,29.65
2023-01-13T02:59:22.123Z,36.78
2023-01-13T03:01:51.123Z,32.97
2023-01-13T03:04:50.369Z,33.22
2023-01-13T03:07:53.256Z,33.05
2023-01-13T03:10:52.127Z,31.15
2023-01-13T03:13:52.179Z,33.08
2023-01-13T03:16:59.358Z,31.98
2023-01-13T03:19:56.519Z,31.63
2023-01-13T03:25:23.023Z,35.20
2023-01-13T03:28:03.004Z,35.75
2023-01-13T03:30:45.112Z,40.55
2023-01-13T03:33:18.712Z,34.92
2023-01-13T03:35:50.707Z,29.63
2023-01-13T03:38:31.233Z,33.75
2023-01-13T03:41:02.775Z,27.05
2023-01-13T03:44:24.241Z,31.42
2023-01-13T03:47:11.449Z,36.25
2023-01-13T03:50:08.384Z,32.30
2023-01-13T03:55:18.655Z,30.70
2023-01-13T03:57:55.639Z,33.75
2023-01-13T04:00:28.749Z,28.23
2023-01-13T04:03:14.836Z,29.33
2023-01-13T04:05:47.742Z,34.25
2023-01-13T04:08:27.736Z,32.72
2023-01-13T04:11:08.195Z,37.38
2023-01-13T04:13:40.154Z,35.78
2023-01-13T04:16:09.227Z,37.83
2023-01-13T04:18:39.738Z,35.28
2023-01-13T04:21:08.018Z,36.58
2023-01-13T04:23:35.329Z,32.78
2023-01-13T04:26:02.452Z,38.78
2023-01-13T04:28:29.534Z,36.47
2023-01-13T04:30:56.679Z,33.88
2023-01-13T04:33:23.785Z,34.65
2023-01-13T04:35:52.542Z,35.55
2023-01-13T04:38:21.748Z,32.45
2023-01-13T04:40:49.036Z,36.65
2023-01-13T04:43:16.442Z,31.45
2023-01-13T04:45:44.852Z,31.98
2023-01-13T04:48:12.049Z,33.10
2023-01-13T04:50:39.296Z,27.55
2023-01-13T04:53:07.112Z,34.20
2023-01-13T04:55:34.259Z,31.98
2023-01-13T04:58:09.972Z,31.77
2023-01-13T05:00:37.799Z,32.05
2023-01-13T05:03:05.246Z,36.90
2023-01-13T05:05:32.333Z,37.03
2023-01-13T05:07:59.559Z,34.80
2023-01-13T05:10:27.583Z,29.55
2023-01-13T05:13:13.296Z,33.85
2023-01-13T05:16:00.547Z,32.47
2023-01-13T05:18:29.706Z,30.98
2023-01-13T05:20:56.973Z,36.20
2023-01-13T05:23:42.464Z,34.65
2023-01-13T05:26:09.582Z,38.10
2023-01-13T05:28:36.556Z,29.33
2023-01-13T05:31:03.595Z,27.95
2023-01-13T05:33:31.124Z,29.50
2023-01-13T05:36:03.432Z,27.50
2023-01-13T05:38:30.838Z,29.10
2023-01-13T05:41:19.029Z,25.15
2023-01-13T05:43:46.389Z,24.25
2023-01-13T05:46:14.813Z,25.55
2023-01-13T05:48:43.445Z,26.30
2023-01-13T05:51:12.798Z,26.92
2023-01-13T05:53:42.914Z,27.25
2023-01-13T05:56:11.297Z,26.42
2023-01-13T05:58:38.745Z,26.90
2023-01-13T06:01:08.865Z,23.80
2023-01-13T06:03:36.923Z,17.48
2023-01-13T06:06:04.682Z,20.35
2023-01-13T06:08:32.566Z,23.02
2023-01-13T06:10:59.652Z,20.42
2023-01-13T06:13:27.108Z,19.63
2023-01-13T06:15:59.050Z,21.17
2023-01-13T06:18:26.808Z,22.52
2023-01-13T06:20:53.885Z,23.55
2023-01-13T06:23:21.129Z,19.38
2023-01-13T06:26:12.847Z,20.92
2023-01-13T06:28:39.839Z,21.05
2023-01-13T06:31:08.879Z,22.58
2023-01-13T06:33:47.637Z,20.52
2023-01-13T06:36:22.225Z,20.67
2023-01-13T06:38:53.899Z,20.27
2023-01-13T06:41:44.238Z,21.98
2023-01-13T06:44:11.413Z,20.63
2023-01-13T06:46:38.774Z,17.33
2023-01-13T06:49:07.423Z,18.90
2023-01-13T06:51:34.703Z,18.77
2023-01-13T06:54:01.720Z,17.60
2023-01-13T06:56:28.714Z,15.98
2023-01-13T06:58:55.729Z,17.25
2023-01-13T07:01:22.984Z,16.38
2023-01-13T07:03:50.241Z,17.33
2023-01-13T07:06:17.210Z,17.45
2023-01-13T07:08:44.271Z,17.77
2023-01-13T07:11:11.347Z,17.02
2023-01-13T07:13:56.755Z,17.15
2023-01-13T07:16:24.344Z,18.73
2023-01-13T07:18:51.615Z,19.40
2023-01-13T07:21:19.989Z,17.95
2023-01-13T07:23:48.200Z,17.40
2023-01-13T07:26:16.031Z,17.85
2023-01-13T07:28:43.284Z,17.05
2023-01-13T07:31:17.400Z,25.48
2023-01-13T07:33:45.044Z,20.60
2023-01-13T07:36:13.057Z,20.88
2023-01-13T07:38:40.693Z,22.48
2023-01-13T07:41:26.412Z,22.35
2023-01-13T07:43:53.514Z,21.17
2023-01-13T07:46:20.599Z,19.65
2023-01-13T07:48:49.052Z,21.08
2023-01-13T07:51:16.375Z,19.67
2023-01-13T07:53:43.382Z,16.67
2023-01-13T07:56:10.822Z,19.45
2023-01-13T07:58:38.102Z,22.30
2023-01-13T08:01:13.679Z,18.42
2023-01-13T08:03:41.307Z,21.80
2023-01-13T08:06:10.383Z,18.33
2023-01-13T08:08:38.698Z,24.88
2023-01-13T08:11:07.612Z,20.80
2023-01-13T08:13:34.668Z,22.05
2023-01-13T08:16:05.875Z,22.88
2023-01-13T08:18:34.461Z,19.95
2023-01-13T08:21:11.896Z,18.55
2023-01-13T08:23:40.672Z,22.85
2023-01-13T08:26:14.608Z,21.77
2023-01-13T08:28:42.194Z,22.63
2023-01-13T08:31:16.161Z,25.15
2023-01-13T08:33:43.544Z,28.88
2023-01-13T08:36:12.647Z,20.30
2023-01-13T08:38:40.981Z,23.52
2023-01-13T08:41:14.732Z,24.50
2023-01-13T08:43:42.149Z,21.65
2023-01-13T08:46:09.485Z,19.58
2023-01-13T08:48:36.960Z,23.02
2023-01-13T08:51:09.417Z,22.70
2023-01-13T08:53:36.852Z,23.65
2023-01-13T08:56:11.660Z,21.60
2023-01-13T08:58:39.123Z,17.00
2023-01-13T09:01:07.296Z,17.48
2023-01-13T09:03:34.668Z,20.77
2023-01-13T09:06:02.021Z,25.60
2023-01-13T09:08:29.255Z,26.00
2023-01-13T09:10:57.367Z,20.85
2023-01-13T09:13:24.646Z,25.85
2023-01-13T09:15:55.855Z,24.83
2023-01-13T09:18:24.169Z,22.65
2023-01-13T09:20:51.224Z,26.42
2023-01-13T09:23:18.226Z,22.25
2023-01-13T09:25:46.275Z,31.60
2023-01-13T09:28:13.347Z,24.63
2023-01-13T09:30:40.297Z,24.65
2023-01-13T09:33:25.961Z,26.58
2023-01-13T09:35:59.133Z,20.10
2023-01-13T09:38:26.421Z,24.95
2023-01-13T09:40:54.609Z,29.15
2023-01-13T09:43:46.530Z,23.20
2023-01-13T09:46:47.062Z,26.45
2023-01-13T09:49:28.416Z,24.70
2023-01-13T09:52:03.772Z,24.67
2023-01-13T09:55:03.156Z,21.58
2023-01-13T09:57:37.224Z,22.48
2023-01-13T10:00:20.990Z,25.75
2023-01-13T10:03:09.701Z,23.52
2023-01-13T10:05:41.136Z,23.17
2023-01-13T10:08:24.379Z,20.92
2023-01-13T10:10:56.092Z,24.98
2023-01-13T10:13:30.697Z,23.70
2023-01-13T10:16:12.863Z,23.92
2023-01-13T10:18:46.005Z,23.88
2023-01-13T10:21:41.912Z,24.65
2023-01-13T10:24:47.362Z,30.35
2023-01-13T10:27:33.038Z,22.63
2023-01-13T10:30:31.604Z,21.95
2023-01-13T10:33:32.318Z,26.40
2023-01-13T10:36:02.639Z,27.23
2023-01-13T10:38:39.669Z,24.60
2023-01-13T10:41:15.785Z,26.05
2023-01-13T10:43:44.045Z,25.05
2023-01-13T10:46:17.476Z,28.23
2023-01-13T10:48:57.909Z,24.58
2023-01-13T10:51:29.870Z,23.92
2023-01-13T10:54:20.435Z,24.63
2023-01-13T10:56:47.424Z,23.38
2023-01-13T10:59:23.912Z,25.30
2023-01-13T11:02:44.732Z,26.30
2023-01-13T11:05:25.289Z,22.52
2023-01-13T11:07:55.009Z,25.23
2023-01-13T11:10:27.832Z,25.92
2023-01-13T11:13:26.215Z,30.33
2023-01-13T11:16:16.619Z,26.40
2023-01-13T11:19:02.632Z,28.13
2023-01-13T11:21:40.162Z,26.40
2023-01-13T11:24:20.314Z,26.92
2023-01-13T11:27:16.164Z,27.38
2023-01-13T11:30:26.202Z,22.48
2023-01-13T11:33:11.493Z,28.27
2023-01-13T11:35:57.826Z,25.52
2023-01-13T11:38:33.548Z,24.83
2023-01-13T11:41:17.222Z,27.50
2023-01-13T11:44:17.380Z,27.80
2023-01-13T11:46:44.751Z,25.35
2023-01-13T11:49:27.487Z,21.88
2023-01-13T11:52:38.917Z,23.33
2023-01-13T11:55:22.964Z,26.70
2023-01-13T11:57:52.925Z,26.42
2023-01-13T12:00:38.799Z,25.63
2023-01-13T12:03:26.905Z,26.35
2023-01-13T12:06:15.678Z,19.88
2023-01-13T12:08:50.640Z,20.95
2023-01-13T12:11:59.006Z,17.88
2023-01-13T12:14:53.180Z,22.85
2023-01-13T12:17:42.603Z,22.60
2023-01-13T12:20:30.369Z,16.67
2023-01-13T12:23:03.751Z,20.88
2023-01-13T12:25:39.537Z,18.83
2023-01-13T12:28:25.176Z,17.48
2023-01-13T12:30:59.844Z,19.17
2023-01-13T12:33:38.965Z,16.13
2023-01-13T12:36:35.016Z,17.17
2023-01-13T12:39:42.807Z,17.03
2023-01-13T12:42:51.286Z,15.45
2023-01-13T12:45:31.317Z,17.38
2023-01-13T12:47:59.921Z,20.67
2023-01-13T12:50:27.004Z,18.58
2023-01-13T12:52:59.625Z,16.70
2023-01-13T12:55:36.289Z,16.08
2023-01-13T12:58:06.216Z,17.80
2023-01-13T13:00:40.773Z,16.10
2023-01-13T13:03:19.295Z,15.63
2023-01-13T13:06:16.524Z,16.13
2023-01-13T13:09:06.613Z,14.52
2023-01-13T13:11:59.584Z,16.20
2023-01-13T13:14:49.363Z,16.13
2023-01-13T13:17:28.522Z,14.52
2023-01-13T13:19:57.618Z,12.88
2023-01-13T13:22:27.669Z,19.20
2023-01-13T13:24:54.700Z,13.23
2023-01-13T13:27:37.020Z,14.98
2023-01-13T13:30:18.359Z,15.07
2023-01-13T13:33:48.942Z,11.48
2023-01-13T13:36:46.647Z,12.48
2023-01-13T13:39:45.593Z,14.27
2023-01-13T13:42:39.233Z,12.18
2023-01-13T13:45:40.444Z,14.10
2023-01-13T13:48:33.890Z,12.88
2023-01-13T13:51:07.224Z,13.13
2023-01-13T13:53:38.647Z,13.38
2023-01-13T13:56:21.617Z,17.70
2023-01-13T13:58:50.478Z,13.73
2023-01-13T14:02:13.157Z,14.43
2023-01-13T14:05:37.532Z,13.80
2023-01-13T14:08:33.722Z,12.65
2023-01-13T14:11:41.756Z,12.68
2023-01-13T14:14:21.392Z,13.52
2023-01-13T14:16:56.195Z,13.40
2023-01-13T14:19:40.669Z,16.17
2023-01-13T14:22:23.971Z,13.00
2023-01-13T14:25:02.284Z,15.00
2023-01-13T14:27:54.489Z,12.68
2023-01-13T14:30:30.383Z,12.13
2023-01-13T14:33:02.081Z,14.85
2023-01-13T14:35:39.230Z,15.68
2023-01-13T14:38:17.230Z,18.30
2023-01-13T14:40:58.101Z,14.43
2023-01-13T14:43:31.803Z,17.15
2023-01-13T14:46:09.382Z,13.00
2023-01-13T14:48:48.400Z,17.77
2023-01-13T14:51:35.060Z,17.98
2023-01-13T14:54:06.357Z,15.60
2023-01-13T14:57:08.029Z,14.88
2023-01-13T14:59:54.948Z,12.70
2023-01-13T15:02:34.808Z,13.02
2023-01-13T15:05:26.709Z,15.23
2023-01-13T15:10:53.907Z,16.42
2023-01-13T15:13:48.211Z,16.52
2023-01-13T15:16:28.088Z,14.27
2023-01-13T15:18:56.507Z,13.40
2023-01-13T15:21:23.912Z,13.70
2023-01-13T15:23:51.414Z,11.80
2023-01-13T15:26:24.834Z,13.07
2023-01-13T15:28:53.782Z,12.25
2023-01-13T15:31:22.339Z,12.93
2023-01-13T15:33:49.874Z,12.45
2023-01-13T15:36:32.555Z,15.90
2023-01-13T15:39:01.204Z,13.05
2023-01-13T15:41:49.871Z,12.00
2023-01-13T15:44:36.157Z,12.48
2023-01-13T15:47:06.903Z,13.15
2023-01-13T15:49:41.320Z,10.90
2023-01-13T15:52:24.927Z,11.68
2023-01-13T15:54:53.662Z,11.18
2023-01-13T15:57:29.649Z,14.40
2023-01-13T16:02:26.672Z,14.38
2023-01-13T16:04:56.600Z,13.90
2023-01-13T16:07:25.190Z,11.77
2023-01-13T16:09:52.855Z,15.05
2023-01-13T16:12:20.375Z,11.20
2023-01-13T16:14:47.573Z,13.98
2023-01-13T16:17:21.659Z,12.32
2023-01-13T16:19:49.803Z,13.40
2023-01-13T16:22:17.440Z,10.80
2023-01-13T16:24:44.945Z,12.07
2023-01-13T16:27:18.434Z,11.05
2023-01-13T16:29:47.110Z,13.05
2023-01-13T16:32:14.746Z,11.18
2023-01-13T16:34:41.913Z,9.77
2023-01-13T16:37:23.854Z,9.80
2023-01-13T16:39:52.597Z,12.13
2023-01-13T16:42:21.158Z,10.52
2023-01-13T16:44:49.103Z,14.02
2023-01-13T16:47:18.111Z,11.90
2023-01-13T16:49:45.813Z,11.63
2023-01-13T16:52:13.044Z,14.63
2023-01-13T16:54:40.202Z,12.32
2023-01-13T16:57:09.870Z,16.45
2023-01-13T16:59:36.997Z,15.40
2023-01-13T17:02:05.139Z,13.23
2023-01-13T17:04:32.217Z,10.23
2023-01-13T17:07:06.860Z,12.68
2023-01-13T17:09:34.120Z,10.40
2023-01-13T17:12:01.519Z,11.73
2023-01-13T17:14:28.543Z,13.98
2023-01-13T17:16:58.026Z,13.10
2023-01-13T17:19:25.762Z,11.55
2023-01-13T17:21:52.919Z,14.25
2023-01-13T17:24:20.667Z,13.80
2023-01-13T17:26:50.882Z,15.77
2023-01-13T17:29:23.244Z,15.13
2023-01-13T17:31:51.431Z,11.70
2023-01-13T17:34:19.766Z,14.27
2023-01-13T17:36:47.121Z,14.75
2023-01-13T17:39:26.206Z,13.68
2023-01-13T17:41:55.879Z,13.68
2023-01-13T17:44:23.541Z,13.85
2023-01-13T17:46:50.638Z,11.88
2023-01-13T17:49:19.770Z,13.85
2023-01-13T17:51:51.099Z,13.65
2023-01-13T17:54:18.675Z,14.50
2023-01-13T17:56:45.733Z,12.27
2023-01-13T17:59:14.570Z,15.98
2023-01-13T18:01:41.954Z,14.30
2023-01-13T18:04:16.508Z,11.15
2023-01-13T18:06:43.977Z,14.60
2023-01-13T18:09:11.567Z,11.32
2023-01-13T18:11:38.886Z,9.40
2023-01-13T18:14:06.200Z,13.32
2023-01-13T18:16:33.360Z,15.05
2023-01-13T18:19:19.821Z,12.93
2023-01-13T18:22:06.379Z,15.85
2023-01-13T18:27:27.113Z,15.55
2023-01-13T18:29:57.277Z,15.13
2023-01-13T18:32:32.933Z,14.23
2023-01-13T18:35:06.443Z,10.30
2023-01-13T18:37:36.128Z,14.02
2023-01-13T18:40:05.040Z,13.43
2023-01-13T18:42:50.720Z,14.23
2023-01-13T18:45:29.817Z,14.30
2023-01-13T18:48:00.501Z,14.15
2023-01-13T18:50:28.325Z,18.73
2023-01-13T18:52:55.995Z,12.65
2023-01-13T18:55:23.711Z,12.98
2023-01-13T18:57:51.237Z,11.35
2023-01-13T19:00:21.580Z,9.05
2023-01-13T19:05:34.777Z,8.50
2023-01-13T19:08:02.661Z,8.57
2023-01-13T19:10:32.253Z,12.02
2023-01-13T19:13:01.315Z,8.70
2023-01-13T19:15:28.548Z,10.60
2023-01-13T19:17:55.785Z,11.10
2023-01-13T19:20:22.880Z,11.38
2023-01-13T19:22:54.209Z,13.52
2023-01-13T19:25:21.626Z,13.50
2023-01-13T19:27:48.732Z,11.48
2023-01-13T19:30:17.261Z,15.93
2023-01-13T19:32:44.376Z,14.85
2023-01-13T19:35:13.083Z,13.43
2023-01-13T19:37:40.327Z,14.00
2023-01-13T19:40:09.416Z,12.43
2023-01-13T19:42:55.752Z,13.30
2023-01-13T19:45:30.534Z,13.52
2023-01-13T19:48:01.788Z,12.57
2023-01-13T19:50:29.237Z,13.00
2023-01-13T19:52:56.340Z,13.05
2023-01-13T19:55:23.967Z,14.32
2023-01-13T19:57:51.044Z,14.13
2023-01-13T20:00:21.048Z,16.13
2023-01-13T20:02:51.696Z,10.63
2023-01-13T20:05:24.299Z,12.43
2023-01-13T20:07:51.941Z,13.00
2023-01-13T20:10:21.620Z,16.65
2023-01-13T20:12:48.819Z,12.57
2023-01-13T20:15:15.999Z,12.80
2023-01-13T20:17:43.116Z,11.95
2023-01-13T20:20:11.896Z,13.10
2023-01-13T20:22:39.891Z,13.77
2023-01-13T20:25:08.468Z,15.25
2023-01-13T20:27:36.789Z,13.93
2023-01-13T20:30:09.419Z,11.55
2023-01-13T20:32:37.160Z,12.05
2023-01-13T20:35:05.004Z,14.35
2023-01-13T20:37:32.101Z,16.45
2023-01-13T20:40:01.623Z,16.45
2023-01-13T20:42:34.620Z,13.18
2023-01-13T20:45:01.925Z,14.60
2023-01-13T20:47:29.929Z,15.32
2023-01-13T20:49:57.467Z,13.45
2023-01-13T20:52:24.732Z,14.25
2023-01-13T20:54:52.018Z,14.65
2023-01-13T20:57:19.335Z,14.40
2023-01-13T20:59:46.448Z,12.95
2023-01-13T21:02:16.475Z,16.13
2023-01-13T21:04:44.035Z,11.88
2023-01-13T21:07:11.357Z,14.35
2023-01-13T21:09:38.577Z,10.73
2023-01-13T21:12:25.038Z,15.02
2023-01-13T21:15:10.720Z,13.20
2023-01-13T21:17:56.212Z,14.63
2023-01-13T21:20:23.439Z,13.50
2023-01-13T21:22:50.633Z,13.93
2023-01-13T21:25:19.007Z,11.73
2023-01-13T21:27:46.558Z,13.27
2023-01-13T21:30:16.929Z,11.98
2023-01-13T21:32:45.389Z,13.82
2023-01-13T21:35:14.333Z,13.38
2023-01-13T21:37:43.254Z,14.10
2023-01-13T21:40:13.781Z,14.27
2023-01-13T21:43:00.282Z,14.90
2023-01-13T21:48:12.889Z,14.18
2023-01-13T21:50:40.331Z,11.70
2023-01-13T21:53:08.032Z,16.95
2023-01-13T21:55:36.798Z,10.43
2023-01-13T21:58:12.683Z,14.68
2023-01-13T22:00:43.153Z,16.98
2023-01-13T22:03:12.443Z,15.85
2023-01-13T22:05:40.711Z,13.82
2023-01-13T22:08:08.002Z,16.17
2023-01-13T22:10:35.519Z,17.33
2023-01-13T22:13:23.502Z,17.58
2023-01-13T22:15:50.514Z,17.23
2023-01-13T22:18:20.035Z,14.50
2023-01-13T22:20:47.253Z,12.32
2023-01-13T22:23:14.272Z,15.55
2023-01-13T22:25:41.268Z,11.30
2023-01-13T22:28:09.283Z,13.88
2023-01-13T22:30:36.769Z,13.68
2023-01-13T22:33:04.122Z,16.42
2023-01-13T22:35:31.149Z,21.45
2023-01-13T22:37:58.792Z,15.75
2023-01-13T22:40:25.999Z,18.23
2023-01-13T22:42:53.026Z,17.75
2023-01-13T22:45:20.131Z,14.35
2023-01-13T22:47:47.907Z,18.25
2023-01-13T22:50:16.652Z,17.40
2023-01-13T22:52:43.688Z,18.50
2023-01-13T22:55:10.723Z,15.00
2023-01-13T22:57:47.393Z,21.73
2023-01-13T23:00:19.026Z,18.70
2023-01-13T23:02:46.764Z,19.20
2023-01-13T23:05:13.988Z,21.08
2023-01-13T23:07:41.243Z,21.63
2023-01-13T23:10:09.094Z,15.48
2023-01-13T23:12:36.395Z,16.13
2023-01-13T23:15:04.314Z,18.40
2023-01-13T23:17:31.395Z,18.55
2023-01-13T23:19:58.436Z,16.23
2023-01-13T23:22:25.677Z,15.55
2023-01-13T23:24:52.666Z,16.65
2023-01-13T23:27:19.704Z,13.30
2023-01-13T23:29:46.768Z,17.15
2023-01-13T23:32:13.791Z,15.38
2023-01-13T23:34:40.816Z,15.63
2023-01-13T23:37:07.833Z,16.00
2023-01-13T23:39:34.829Z,16.50
2023-01-13T23:42:01.894Z,17.08
2023-01-13T23:44:29.404Z,16.48
2023-01-13T23:46:56.455Z,19.90
2023-01-13T23:49:23.435Z,16.58
2023-01-13T23:51:51.598Z,14.98
2023-01-13T23:54:19.181Z,14.13
2023-01-13T23:56:46.295Z,15.57
2023-01-13T23:59:13.366Z,16.23
